createdAt,value
2016-05-22T00:00:52.641Z,71.46
2016-05-22T00:01:52.487Z,71.27
2016-05-22T00:02:52.630Z,71.37
2016-05-22T00:03:52.649Z,71.46
2016-05-22T00:04:52.651Z,71.37
2016-05-22T00:05:52.498Z,71.66
2016-05-22T00:06:52.657Z,71.75
2016-05-22T00:07:52.643Z,72.23
2016-05-22T00:08:52.663Z,72.13
2016-05-22T00:09:52.665Z,72.32
2016-05-22T00:10:52.667Z,72.03
2016-05-22T00:11:52.687Z,72.13
2016-05-22T00:12:52.673Z,72.03
2016-05-22T00:13:52.659Z,72.32
2016-05-22T00:14:52.695Z,72.32
2016-05-22T00:15:52.665Z,72.71
2016-05-22T00:16:52.668Z,72.8
2016-05-22T00:17:52.514Z,72.61
2016-05-22T00:18:52.517Z,72.42
2016-05-22T00:19:52.676Z,73.09
2016-05-22T00:20:52.678Z,73.15
2016-05-22T00:21:52.681Z,73.15
2016-05-22T00:22:52.684Z,72.77
2016-05-22T00:23:52.686Z,72.77
2016-05-22T00:24:52.706Z,73.05
2016-05-22T00:25:52.708Z,72.58
2016-05-22T00:26:52.694Z,73.05
2016-05-22T00:27:52.652Z,72.86
2016-05-22T00:28:52.716Z,73.15
2016-05-22T00:29:52.703Z,72.96
2016-05-22T00:30:52.705Z,73.05
2016-05-22T00:31:52.708Z,73.54
2016-05-22T00:32:52.711Z,73.24
2016-05-22T00:33:52.713Z,73.54
2016-05-22T00:34:52.716Z,73.91
2016-05-22T00:35:52.704Z,74.01
2016-05-22T00:36:52.722Z,73.91
2016-05-22T00:37:52.740Z,73.91
2016-05-22T00:38:52.727Z,73.24
2016-05-22T00:39:52.746Z,73.63
2016-05-22T00:40:52.748Z,73.05
2016-05-22T00:41:52.751Z,73.44
2016-05-22T00:42:52.738Z,73.34
2016-05-22T00:43:52.740Z,73.44
2016-05-22T00:44:52.760Z,73.05
2016-05-22T00:45:52.746Z,73.44
2016-05-22T00:46:52.748Z,72.58
2016-05-22T00:47:52.752Z,73.82
2016-05-22T00:48:52.754Z,74.01
2016-05-22T00:49:52.756Z,74.11
2016-05-22T00:50:52.759Z,73.91
2016-05-22T00:51:52.762Z,73.91
2016-05-22T00:52:52.765Z,73.34
2016-05-22T00:53:52.752Z,73.44
2016-05-22T00:54:52.755Z,73.44
2016-05-22T00:55:52.758Z,73.63
2016-05-22T00:56:52.760Z,73.15
2016-05-22T00:57:52.763Z,73.15
2016-05-22T00:58:52.766Z,73.05
2016-05-22T00:59:52.800Z,73.34
2016-05-22T01:00:52.771Z,73.24
2016-05-22T01:01:52.774Z,73.24
2016-05-22T01:02:52.791Z,73.24
2016-05-22T01:03:52.779Z,73.63
2016-05-22T01:04:52.782Z,73.72
2016-05-22T01:05:52.628Z,74.01
2016-05-22T01:06:52.787Z,74.01
2016-05-22T01:07:52.774Z,73.24
2016-05-22T01:08:52.793Z,73.44
2016-05-22T01:09:52.795Z,73.63
2016-05-22T01:10:52.626Z,73.44
2016-05-22T01:11:52.785Z,73.63
2016-05-22T01:12:52.818Z,73.72
2016-05-22T01:13:52.806Z,73.54
2016-05-22T01:14:52.824Z,73.54
2016-05-22T01:15:52.826Z,73.54
2016-05-22T01:16:52.830Z,73.54
2016-05-22T01:17:52.832Z,73.72
2016-05-22T01:18:52.834Z,73.54
2016-05-22T01:19:52.822Z,73.54
2016-05-22T01:20:52.825Z,73.34
2016-05-22T01:21:52.828Z,73.54
2016-05-22T01:22:52.831Z,73.72
2016-05-22T01:23:52.833Z,73.15
2016-05-22T01:24:52.836Z,73.72
2016-05-22T01:25:52.838Z,72.96
2016-05-22T01:26:52.669Z,73.54
2016-05-22T01:27:52.703Z,74.01
2016-05-22T01:28:52.846Z,73.82
2016-05-22T01:29:52.849Z,73.79
2016-05-22T01:30:52.851Z,73.54
2016-05-22T01:31:52.838Z,73.97
2016-05-22T01:32:52.685Z,73.91
2016-05-22T01:33:52.860Z,73.88
2016-05-22T01:34:52.706Z,73.79
2016-05-22T01:35:52.834Z,73.82
2016-05-22T01:36:52.852Z,73.88
2016-05-22T01:37:52.855Z,74.07
2016-05-22T01:38:52.857Z,73.88
2016-05-22T01:39:52.860Z,73.63
2016-05-22T01:40:52.862Z,73.63
2016-05-22T01:41:52.851Z,73.59
2016-05-22T01:42:52.868Z,73.79
2016-05-22T01:43:52.856Z,73.63
2016-05-22T01:44:52.873Z,73.63
2016-05-22T01:45:52.720Z,73.79
2016-05-22T01:46:52.723Z,74.3
2016-05-22T01:47:52.867Z,74.36
2016-05-22T01:48:52.869Z,74.07
2016-05-22T01:49:52.887Z,74.4
2016-05-22T01:50:52.875Z,74.74
2016-05-22T01:51:52.877Z,74.11
2016-05-22T01:52:52.880Z,73.63
2016-05-22T01:53:52.882Z,73.88
2016-05-22T01:54:52.901Z,74.07
2016-05-22T01:55:52.872Z,74.16
2016-05-22T01:56:52.875Z,74.45
2016-05-22T01:57:52.893Z,74.45
2016-05-22T01:58:52.911Z,74.45
2016-05-22T01:59:52.899Z,74.84
2016-05-22T02:00:52.902Z,74.45
2016-05-22T02:01:52.904Z,74.55
2016-05-22T02:02:52.907Z,75.02
2016-05-22T02:03:52.737Z,74.93
2016-05-22T02:04:52.897Z,75.31
2016-05-22T02:05:52.743Z,75.22
2016-05-22T02:06:52.917Z,75.02
2016-05-22T02:07:52.764Z,75.41
2016-05-22T02:08:52.923Z,75.31
2016-05-22T02:09:52.910Z,75.41
2016-05-22T02:10:52.928Z,75.51
2016-05-22T02:11:52.931Z,75.89
2016-05-22T02:12:52.934Z,75.89
2016-05-22T02:13:52.921Z,75.7
2016-05-22T02:14:52.923Z,75.6
2016-05-22T02:15:52.926Z,75.79
2016-05-22T02:16:52.945Z,75.37
2016-05-22T02:17:52.931Z,75.51
2016-05-22T02:18:52.934Z,75.76
2016-05-22T02:19:52.937Z,75.37
2016-05-22T02:20:52.924Z,76.27
2016-05-22T02:21:52.926Z,76.23
2016-05-22T02:22:52.945Z,76.08
2016-05-22T02:23:52.947Z,76.46
2016-05-22T02:24:52.950Z,76.65
2016-05-22T02:25:52.937Z,76.33
2016-05-22T02:26:52.940Z,76.42
2016-05-22T02:27:52.958Z,76.23
2016-05-22T02:28:52.945Z,75.85
2016-05-22T02:29:52.964Z,76.04
2016-05-22T02:30:52.950Z,76.33
2016-05-22T02:31:52.953Z,76.14
2016-05-22T02:32:52.972Z,76.04
2016-05-22T02:33:52.959Z,76.42
2016-05-22T02:34:52.961Z,76.23
2016-05-22T02:35:52.949Z,76.42
2016-05-22T02:36:52.966Z,76.23
2016-05-22T02:37:52.969Z,76.33
2016-05-22T02:38:52.972Z,76.62
2016-05-22T02:39:52.819Z,76.23
2016-05-22T02:40:52.962Z,76.62
2016-05-22T02:41:52.980Z,76.52
2016-05-22T02:42:52.983Z,77
2016-05-22T02:43:52.970Z,76.71
2016-05-22T02:44:52.972Z,76.81
2016-05-22T02:45:52.976Z,76.81
2016-05-22T02:46:52.978Z,76.71
2016-05-22T02:47:52.981Z,77.19
2016-05-22T02:48:52.968Z,77.09
2016-05-22T02:49:52.970Z,77.09
2016-05-22T02:50:52.989Z,77.28
2016-05-22T02:51:53.007Z,76.62
2016-05-22T02:52:52.837Z,76.81
2016-05-22T02:53:52.981Z,76.71
2016-05-22T02:54:52.984Z,77.09
2016-05-22T02:55:52.986Z,76.9
2016-05-22T02:56:52.833Z,77.67
2016-05-22T02:57:53.023Z,77.48
2016-05-22T02:58:52.994Z,77.57
2016-05-22T02:59:52.997Z,77.76
2016-05-22T03:00:53.000Z,77.38
2016-05-22T03:01:53.003Z,77.28
2016-05-22T03:02:52.849Z,77.19
2016-05-22T03:03:52.835Z,77.57
2016-05-22T03:04:52.995Z,77.57
2016-05-22T03:05:52.997Z,77.57
2016-05-22T03:06:52.860Z,77.48
2016-05-22T03:07:53.019Z,77.19
2016-05-22T03:08:53.006Z,77.28
2016-05-22T03:09:53.008Z,77.67
2016-05-22T03:10:53.010Z,77.67
2016-05-22T03:11:53.013Z,77.76
2016-05-22T03:12:54.063Z,77.95
2016-05-22T03:13:53.019Z,77.57
2016-05-22T03:14:53.021Z,78.05
2016-05-22T03:15:53.024Z,77.95
2016-05-22T03:16:53.027Z,78.05
2016-05-22T03:17:53.014Z,77.86
2016-05-22T03:18:53.018Z,77.86
2016-05-22T03:19:53.020Z,78.11
2016-05-22T03:20:52.882Z,78.05
2016-05-22T03:21:53.025Z,78.24
2016-05-22T03:22:53.028Z,78.68
2016-05-22T03:23:53.031Z,78.24
2016-05-22T03:24:53.048Z,78.3
2016-05-22T03:25:53.036Z,77.92
2016-05-22T03:26:53.054Z,78.58
2016-05-22T03:27:53.338Z,78.49
2016-05-22T03:28:53.059Z,78.63
2016-05-22T03:29:52.922Z,78.43
2016-05-22T03:30:53.098Z,78.2
2016-05-22T03:31:53.132Z,78.58
2016-05-22T03:32:53.167Z,78.2
2016-05-22T03:33:53.185Z,78.14
2016-05-22T03:34:53.208Z,77.86
2016-05-22T03:35:53.222Z,78.11
2016-05-22T03:36:53.235Z,78.34
2016-05-22T03:37:53.250Z,78.72
2016-05-22T03:38:53.263Z,78.34
2016-05-22T03:39:53.274Z,78.34
2016-05-22T03:40:53.265Z,78.34
2016-05-22T03:41:53.272Z,78.24
2016-05-22T03:42:53.324Z,78.24
2016-05-22T03:43:53.286Z,78.14
2016-05-22T03:44:53.291Z,78.34
2016-05-22T03:45:53.296Z,78.2
2016-05-22T03:46:53.300Z,78.63
2016-05-22T03:47:53.147Z,78.24
2016-05-22T03:48:53.324Z,78.14
2016-05-22T03:49:53.295Z,78.63
2016-05-22T03:50:53.315Z,78.72
2016-05-22T03:51:53.318Z,77.76
2016-05-22T03:52:53.321Z,78.14
2016-05-22T03:53:53.324Z,78.24
2016-05-22T03:54:53.311Z,77.57
2016-05-22T03:55:53.314Z,77.67
2016-05-22T03:56:53.316Z,77.67
2016-05-22T03:57:53.319Z,77.76
2016-05-22T03:58:53.321Z,77.48
2016-05-22T03:59:53.324Z,77.28
2016-05-22T04:00:53.327Z,77.38
2016-05-22T04:01:53.330Z,77.57
2016-05-22T04:02:53.316Z,77.19
2016-05-22T04:03:53.335Z,77.38
2016-05-22T04:04:53.337Z,77.19
2016-05-22T04:05:53.324Z,77.28
2016-05-22T04:06:53.344Z,77.67
2016-05-22T04:07:53.330Z,76.81
2016-05-22T04:08:53.332Z,77
2016-05-22T04:09:53.335Z,76.81
2016-05-22T04:10:53.338Z,76.62
2016-05-22T04:11:53.341Z,76.56
2016-05-22T04:12:53.360Z,76.42
2016-05-22T04:13:53.190Z,76.27
2016-05-22T04:14:53.348Z,75.79
2016-05-22T04:15:53.351Z,75.51
2016-05-22T04:16:53.339Z,75.6
2016-05-22T04:17:53.342Z,75.6
2016-05-22T04:18:53.360Z,75.41
2016-05-22T04:19:53.348Z,74.93
2016-05-22T04:20:53.364Z,75.22
2016-05-22T04:21:53.368Z,75.22
2016-05-22T04:22:53.370Z,74.93
2016-05-22T04:23:53.420Z,74.26
2016-05-22T04:24:53.392Z,74.07
2016-05-22T04:25:53.379Z,73.54
2016-05-22T04:26:53.381Z,72.86
2016-05-22T04:27:53.384Z,73.05
2016-05-22T04:28:53.387Z,72.48
2016-05-22T04:29:53.389Z,72.03
2016-05-22T04:30:53.392Z,70.98
2016-05-22T04:31:53.379Z,71.08
2016-05-22T04:32:53.241Z,70.89
2016-05-22T04:33:53.385Z,70.41
2016-05-22T04:34:53.387Z,70.89
2016-05-22T04:35:53.390Z,70.21
2016-05-22T04:36:53.393Z,70.79
2016-05-22T04:37:53.396Z,71.17
2016-05-22T04:38:53.398Z,71.56
2016-05-22T04:39:53.401Z,71.94
2016-05-22T04:40:53.403Z,72
2016-05-22T04:41:53.421Z,72.19
2016-05-22T04:42:53.456Z,72.19
2016-05-22T04:43:53.412Z,72.19
2016-05-22T04:44:53.273Z,72.38
2016-05-22T04:45:53.432Z,72.29
2016-05-22T04:46:53.279Z,71.71
2016-05-22T04:47:53.422Z,71.23
2016-05-22T04:48:53.425Z,70.66
2016-05-22T04:49:53.443Z,70.41
2016-05-22T04:50:53.274Z,70.12
2016-05-22T04:51:53.276Z,69.2
2016-05-22T04:52:53.436Z,68.62
2016-05-22T04:53:53.453Z,68.52
2016-05-22T04:54:53.456Z,67.57
2016-05-22T04:55:53.459Z,67.12
2016-05-22T04:56:53.461Z,65.97
2016-05-22T04:57:53.308Z,65.78
2016-05-22T04:58:53.467Z,64.85
2016-05-22T04:59:53.470Z,64.28
2016-05-22T05:00:53.472Z,64.76
2016-05-22T05:01:53.319Z,65.62
2016-05-22T05:02:53.493Z,65.88
2016-05-22T05:03:53.480Z,65.97
2016-05-22T05:04:53.499Z,65.3
2016-05-22T05:05:53.564Z,65.81
2016-05-22T05:06:53.426Z,64.85
2016-05-22T05:07:53.523Z,64.09
2016-05-22T05:08:53.510Z,62.77
2016-05-22T05:09:53.528Z,62.77
2016-05-22T05:10:53.532Z,62.77
2016-05-22T05:11:53.518Z,61.72
2016-05-22T05:12:53.520Z,61.43
2016-05-22T05:13:53.523Z,61.43
2016-05-22T05:14:53.385Z,61.55
2016-05-22T05:15:53.544Z,62.1
2016-05-22T05:16:53.548Z,62.58
2016-05-22T05:17:53.550Z,61.81
2016-05-22T05:18:53.567Z,60.88
2016-05-22T05:19:53.570Z,59.83
2016-05-22T05:20:53.573Z,58.89
2016-05-22T05:21:53.576Z,58.83
2016-05-22T05:22:53.579Z,59.09
2016-05-22T05:23:53.442Z,59.47
2016-05-22T05:24:53.583Z,60.05
2016-05-22T05:25:53.586Z,60.6
2016-05-22T05:26:53.465Z,60.98
2016-05-22T05:27:53.608Z,61.65
2016-05-22T05:28:53.626Z,62.1
2016-05-22T05:29:53.458Z,62.77
2016-05-22T05:30:53.631Z,63.06
2016-05-22T05:31:53.633Z,63.45
2016-05-22T05:32:53.653Z,63.7
2016-05-22T05:33:53.655Z,63.22
2016-05-22T05:34:53.642Z,63.99
2016-05-22T05:35:53.645Z,64.09
2016-05-22T05:36:53.664Z,64.28
2016-05-22T05:37:53.650Z,63.6
2016-05-22T05:38:53.653Z,62.96
2016-05-22T05:39:53.655Z,61.65
2016-05-22T05:40:53.658Z,60.6
2016-05-22T05:41:53.677Z,59.38
2016-05-22T05:42:53.680Z,57.87
2016-05-22T05:43:53.682Z,56.74
2016-05-22T05:44:53.684Z,55.3
2016-05-22T05:45:53.687Z,53.98
2016-05-22T05:46:53.549Z,53.43
2016-05-22T05:47:53.708Z,52.95
2016-05-22T05:48:53.712Z,52.11
2016-05-22T05:49:53.714Z,51.34
2016-05-22T05:50:53.717Z,51.34
2016-05-22T05:51:53.719Z,50.4
2016-05-22T05:52:53.738Z,49.73
2016-05-22T05:53:53.740Z,48.79
2016-05-22T05:54:53.743Z,48.3
2016-05-22T05:55:53.777Z,47.36
2016-05-22T05:56:53.826Z,47.07
2016-05-22T05:57:53.845Z,46.23
2016-05-22T05:58:53.769Z,45.36
2016-05-22T05:59:53.772Z,45.09
2016-05-22T06:00:53.791Z,43.66
2016-05-22T06:01:53.793Z,44.05
2016-05-22T06:02:53.796Z,42.99
2016-05-22T06:03:53.844Z,42.24
2016-05-22T06:04:53.677Z,41.75
2016-05-22T06:05:53.819Z,41.39
2016-05-22T06:06:53.838Z,41
2016-05-22T06:07:53.841Z,40.83
2016-05-22T06:08:53.843Z,40.92
2016-05-22T06:09:53.861Z,40.73
2016-05-22T06:10:53.724Z,41.39
2016-05-22T06:11:53.882Z,41.97
2016-05-22T06:12:54.073Z,42.33
2016-05-22T06:13:53.888Z,42.6
2016-05-22T06:14:53.922Z,42.62
2016-05-22T06:15:53.768Z,42.24
2016-05-22T06:16:53.927Z,42.24
2016-05-22T06:17:53.930Z,41.75
2016-05-22T06:18:53.933Z,41.67
2016-05-22T06:19:53.951Z,41.67
2016-05-22T06:20:53.953Z,40.71
2016-05-22T06:21:53.972Z,39.86
2016-05-22T06:22:53.975Z,38.91
2016-05-22T06:23:53.978Z,38.25
2016-05-22T06:24:53.996Z,38.25
2016-05-22T06:25:53.842Z,38.35
2016-05-22T06:26:54.016Z,38.73
2016-05-22T06:27:54.035Z,38.45
2016-05-22T06:28:54.037Z,38.06
2016-05-22T06:29:54.040Z,37.88
2016-05-22T06:30:53.903Z,37.49
2016-05-22T06:31:54.062Z,37.3
2016-05-22T06:32:53.938Z,36.62
2016-05-22T06:33:54.082Z,36.06
2016-05-22T06:34:54.085Z,36.06
2016-05-22T06:35:54.103Z,35.4
2016-05-22T06:36:54.106Z,35.98
2016-05-22T06:37:54.124Z,34.93
2016-05-22T06:38:54.126Z,34.64
2016-05-22T06:39:53.988Z,34.64
2016-05-22T06:40:54.148Z,34.64
2016-05-22T06:41:54.166Z,35.59
2016-05-22T06:42:54.029Z,35.59
2016-05-22T06:43:54.203Z,35.21
2016-05-22T06:44:54.205Z,35.11
2016-05-22T06:45:54.207Z,34.53
2016-05-22T06:46:54.211Z,34.25
2016-05-22T06:47:54.213Z,34.06
2016-05-22T06:48:54.232Z,33.76
2016-05-22T06:49:54.235Z,33.38
2016-05-22T06:50:54.253Z,33.11
2016-05-22T06:51:54.255Z,32.42
2016-05-22T06:52:54.273Z,31.18
2016-05-22T06:53:54.292Z,30.14
2016-05-22T06:54:54.295Z,29.57
2016-05-22T06:55:54.314Z,28.42
2016-05-22T06:56:54.316Z,27.65
2016-05-22T06:57:54.444Z,27.29
2016-05-22T06:58:54.353Z,27.76
2016-05-22T06:59:54.355Z,27.37
2016-05-22T07:00:54.359Z,27.18
2016-05-22T07:01:54.376Z,27.75
2016-05-22T07:02:54.394Z,28.9
2016-05-22T07:03:54.413Z,29.76
2016-05-22T07:04:54.416Z,30.14
2016-05-22T07:05:54.418Z,30.79
2016-05-22T07:06:54.421Z,30.88
2016-05-22T07:07:54.439Z,30.79
2016-05-22T07:08:54.458Z,30.3
2016-05-22T07:09:54.476Z,30.41
2016-05-22T07:10:54.479Z,30.41
2016-05-22T07:11:54.497Z,29.83
2016-05-22T07:12:55.312Z,30.32
2016-05-22T07:13:54.502Z,30.71
2016-05-22T07:14:54.536Z,30.61
2016-05-22T07:15:54.538Z,30.8
2016-05-22T07:16:54.541Z,30.69
2016-05-22T07:17:54.560Z,30.69
2016-05-22T07:18:54.563Z,31.08
2016-05-22T07:19:54.581Z,30.79
2016-05-22T07:20:54.599Z,30.21
2016-05-22T07:21:54.602Z,29.93
2016-05-22T07:22:54.621Z,28.58
2016-05-22T07:23:54.623Z,28.3
2016-05-22T07:24:54.626Z,28.02
2016-05-22T07:25:54.645Z,26.67
2016-05-22T07:26:54.662Z,26.29
2016-05-22T07:27:54.665Z,26.09
2016-05-22T07:28:54.683Z,25.62
2016-05-22T07:29:54.717Z,25.43
2016-05-22T07:30:54.704Z,25.04
2016-05-22T07:31:54.723Z,24.18
2016-05-22T07:32:54.741Z,22.73
2016-05-22T07:33:54.743Z,22.25
2016-05-22T07:34:54.746Z,22.66
2016-05-22T07:35:54.765Z,23.44
2016-05-22T07:36:54.783Z,22.46
2016-05-22T07:37:54.802Z,22.75
2016-05-22T07:38:54.819Z,23.05
2016-05-22T07:39:54.822Z,22.84
2016-05-22T07:40:54.824Z,22.64
2016-05-22T07:41:54.843Z,22.56
2016-05-22T07:42:54.861Z,21.48
2016-05-22T07:43:54.864Z,21.59
2016-05-22T07:44:54.882Z,20.33
2016-05-22T07:45:54.901Z,21.51
2016-05-22T07:46:54.903Z,21.71
2016-05-22T07:47:54.921Z,21.32
2016-05-22T07:48:54.925Z,21.42
2016-05-22T07:49:54.943Z,20.53
2016-05-22T07:50:54.961Z,20.35
2016-05-22T07:51:54.964Z,20.35
2016-05-22T07:52:54.982Z,20.54
2016-05-22T07:53:54.984Z,20.56
2016-05-22T07:54:55.019Z,18.12
2016-05-22T07:55:54.881Z,19.49
2016-05-22T07:56:55.023Z,20.65
2016-05-22T07:57:55.637Z,21.22
2016-05-22T07:58:55.061Z,21.69
2016-05-22T07:59:55.078Z,23.05
2016-05-22T08:00:55.082Z,22.66
2016-05-22T08:01:55.101Z,22.46
2016-05-22T08:02:55.103Z,23.05
2016-05-22T08:03:54.964Z,21.39
2016-05-22T08:04:55.140Z,21.2
2016-05-22T08:05:55.142Z,20.62
2016-05-22T08:06:55.160Z,20.53
2016-05-22T08:07:55.178Z,20.63
2016-05-22T08:08:55.181Z,20.43
2016-05-22T08:09:55.200Z,20.53
2016-05-22T08:10:55.219Z,20.53
2016-05-22T08:11:55.236Z,20.43
2016-05-22T08:12:55.286Z,20.33
2016-05-22T08:13:55.241Z,20.43
2016-05-22T08:14:55.276Z,20.53
2016-05-22T08:15:55.278Z,20.63
2016-05-22T08:16:55.124Z,21.12
2016-05-22T08:17:55.299Z,19.86
2016-05-22T08:18:55.318Z,19.67
2016-05-22T08:19:55.335Z,19.56
2016-05-22T08:20:55.354Z,19.67
2016-05-22T08:21:55.357Z,19.46
2016-05-22T08:22:55.376Z,20.54
2016-05-22T08:23:55.378Z,19.67
2016-05-22T08:24:55.396Z,19.75
2016-05-22T08:25:55.431Z,20.35
2016-05-22T08:26:55.417Z,19.37
2016-05-22T08:27:55.295Z,18.89
2016-05-22T08:28:55.439Z,19.57
2016-05-22T08:29:55.457Z,18.21
2016-05-22T08:30:55.475Z,18.01
2016-05-22T08:31:55.493Z,17.72
2016-05-22T08:32:55.495Z,18.9
2016-05-22T08:33:55.515Z,17.72
2016-05-22T08:34:55.517Z,18.03
2016-05-22T08:35:55.551Z,18.03
2016-05-22T08:36:55.553Z,16.16
2016-05-22T08:37:55.556Z,16.35
2016-05-22T08:38:55.574Z,16.53
2016-05-22T08:39:55.594Z,17.12
2016-05-22T08:40:55.642Z,17.9
2016-05-22T08:41:55.614Z,17.79
2016-05-22T08:42:56.460Z,17.98
2016-05-22T08:43:55.635Z,17.59
2016-05-22T08:44:55.653Z,17.4
2016-05-22T08:45:55.672Z,17.31
2016-05-22T08:46:55.690Z,17.32
2016-05-22T08:47:55.552Z,18
2016-05-22T08:48:55.710Z,20.25
2016-05-22T08:49:55.729Z,21.81
2016-05-22T08:50:55.732Z,20.53
2016-05-22T08:51:55.750Z,21.59
2016-05-22T08:52:55.768Z,21.57
2016-05-22T08:53:55.771Z,21.64
2016-05-22T08:54:55.805Z,22.51
2016-05-22T08:55:55.807Z,24.24
2016-05-22T08:56:55.810Z,23.95
2016-05-22T08:57:55.688Z,26.86
2016-05-22T08:58:55.847Z,25.19
2016-05-22T08:59:55.850Z,28.58
2016-05-22T09:00:55.711Z,33.15
2016-05-22T09:01:55.886Z,33.23
2016-05-22T09:02:55.905Z,28.66
2016-05-22T09:03:55.908Z,27
2016-05-22T09:04:55.910Z,29.72
2016-05-22T09:05:55.944Z,28.36
2016-05-22T09:06:55.931Z,26.51
2016-05-22T09:07:55.950Z,25.93
2016-05-22T09:08:55.952Z,25.84
2016-05-22T09:09:55.970Z,25.45
2016-05-22T09:10:55.989Z,24.96
2016-05-22T09:11:56.007Z,24.77
2016-05-22T09:12:56.307Z,24.87
2016-05-22T09:13:56.013Z,24.87
2016-05-22T09:14:56.016Z,24.57
2016-05-22T09:15:56.033Z,25.74
2016-05-22T09:16:56.051Z,26.71
2016-05-22T09:17:56.054Z,27.78
2016-05-22T09:18:56.057Z,26.22
2016-05-22T09:19:56.076Z,25.64
2016-05-22T09:20:56.078Z,25.45
2016-05-22T09:21:56.081Z,26.03
2016-05-22T09:22:56.099Z,26.42
2016-05-22T09:23:56.118Z,26.61
2016-05-22T09:24:56.120Z,28.94
2016-05-22T09:25:56.123Z,27.87
2016-05-22T09:26:56.126Z,27.29
2016-05-22T09:27:56.143Z,28.07
2016-05-22T09:28:56.162Z,28.94
2016-05-22T09:29:56.165Z,28.45
2016-05-22T09:30:56.168Z,27.58
2016-05-22T09:31:56.187Z,27.37
2016-05-22T09:32:56.032Z,27.67
2016-05-22T09:33:56.034Z,27.75
2016-05-22T09:34:56.209Z,28.23
2016-05-22T09:35:56.212Z,28.23
2016-05-22T09:36:56.214Z,28.04
2016-05-22T09:37:56.077Z,28.33
2016-05-22T09:38:56.236Z,29.71
2016-05-22T09:39:56.239Z,29.8
2016-05-22T09:40:56.257Z,28.44
2016-05-22T09:41:56.260Z,27.68
2016-05-22T09:42:56.122Z,26.81
2016-05-22T09:43:56.280Z,26.53
2016-05-22T09:44:56.299Z,26.61
2016-05-22T09:45:56.302Z,26.51
2016-05-22T09:46:56.320Z,26.9
2016-05-22T09:47:56.322Z,27.1
2016-05-22T09:48:56.325Z,27.29
2016-05-22T09:49:56.188Z,27.78
2016-05-22T09:50:56.346Z,27.21
2016-05-22T09:51:56.365Z,27.87
2016-05-22T09:52:56.368Z,27.39
2016-05-22T09:53:56.386Z,27.19
2016-05-22T09:54:56.373Z,28.17
2016-05-22T09:55:56.391Z,27.29
2016-05-22T09:56:56.409Z,26.81
2016-05-22T09:57:56.412Z,26.89
2016-05-22T09:58:56.415Z,27.18
2016-05-22T09:59:56.433Z,27.76
2016-05-22T10:00:56.436Z,27.57
2016-05-22T10:01:56.454Z,28.93
2016-05-22T10:02:56.284Z,27.67
2016-05-22T10:03:56.303Z,27.78
2016-05-22T10:04:56.462Z,27
2016-05-22T10:05:56.481Z,26.61
2016-05-22T10:06:56.484Z,26.81
2016-05-22T10:07:56.486Z,26.81
2016-05-22T10:08:56.504Z,26.81
2016-05-22T10:09:56.506Z,26.9
2016-05-22T10:10:56.509Z,26.71
2016-05-22T10:11:56.544Z,26.81
2016-05-22T10:12:56.530Z,26.81
2016-05-22T10:13:56.549Z,27.19
2016-05-22T10:14:56.552Z,27.67
2016-05-22T10:15:56.554Z,27.86
2016-05-22T10:16:56.558Z,28.15
2016-05-22T10:17:56.559Z,28.15
2016-05-22T10:18:56.594Z,28.44
2016-05-22T10:19:56.580Z,29.8
2016-05-22T10:20:56.599Z,28.25
2016-05-22T10:21:56.602Z,28.15
2016-05-22T10:22:56.620Z,28.25
2016-05-22T10:23:56.623Z,28.54
2016-05-22T10:24:56.469Z,28.34
2016-05-22T10:25:56.643Z,27.76
2016-05-22T10:26:56.662Z,27.76
2016-05-22T10:27:56.946Z,30.29
2016-05-22T10:28:56.511Z,28.26
2016-05-22T10:29:56.670Z,27.87
2016-05-22T10:30:56.687Z,28.07
2016-05-22T10:31:56.691Z,27.19
2016-05-22T10:32:56.694Z,27.68
2016-05-22T10:33:56.712Z,27.58
2016-05-22T10:34:56.731Z,27.68
2016-05-22T10:35:56.562Z,27.21
2016-05-22T10:36:56.579Z,27.21
2016-05-22T10:37:56.598Z,28.38
2016-05-22T10:38:56.756Z,27.79
2016-05-22T10:39:56.759Z,26.82
2016-05-22T10:40:56.762Z,26.53
2016-05-22T10:41:56.781Z,27.01
2016-05-22T10:42:56.830Z,26.72
2016-05-22T10:43:56.630Z,26.62
2016-05-22T10:44:56.804Z,27.69
2016-05-22T10:45:56.808Z,27.01
2016-05-22T10:46:56.809Z,27.61
2016-05-22T10:47:56.827Z,28.39
2016-05-22T10:48:56.674Z,28.58
2016-05-22T10:49:56.849Z,28.68
2016-05-22T10:50:56.852Z,29.65
2016-05-22T10:51:56.869Z,27.72
2016-05-22T10:52:56.872Z,25.48
2016-05-22T10:53:56.875Z,25.87
2016-05-22T10:54:56.894Z,25.29
2016-05-22T10:55:56.897Z,25.09
2016-05-22T10:56:56.914Z,24.99
2016-05-22T10:57:57.370Z,25.48
2016-05-22T10:58:57.451Z,26.46
2016-05-22T10:59:56.923Z,24.43
2016-05-22T11:00:56.941Z,25.49
2016-05-22T11:01:56.943Z,24.13
2016-05-22T11:02:56.962Z,26.28
2016-05-22T11:03:56.981Z,26.26
2016-05-22T11:04:56.999Z,25.29
2016-05-22T11:05:56.986Z,25.57
2016-05-22T11:06:57.003Z,24.99
2016-05-22T11:07:57.006Z,24.98
2016-05-22T11:08:57.025Z,25.09
2016-05-22T11:09:57.027Z,25.58
2016-05-22T11:10:57.031Z,26.46
2016-05-22T11:11:56.877Z,24.99
2016-05-22T11:12:57.067Z,24.9
2016-05-22T11:13:57.069Z,25.27
2016-05-22T11:14:57.072Z,26.25
2016-05-22T11:15:57.075Z,25.67
2016-05-22T11:16:57.094Z,25.67
2016-05-22T11:17:57.096Z,25.08
2016-05-22T11:18:57.099Z,24.79
2016-05-22T11:19:56.960Z,24.6
2016-05-22T11:20:57.119Z,24.6
2016-05-22T11:21:57.138Z,24.69
2016-05-22T11:22:57.141Z,24.6
2016-05-22T11:23:57.144Z,24.22
2016-05-22T11:24:57.162Z,25.87
2016-05-22T11:25:57.165Z,25.48
2016-05-22T11:26:57.168Z,24.71
2016-05-22T11:27:57.185Z,25.09
2016-05-22T11:28:57.469Z,25.47
2016-05-22T11:29:57.206Z,25.67
2016-05-22T11:30:57.209Z,25.65
2016-05-22T11:31:57.212Z,25.65
2016-05-22T11:32:57.230Z,26.33
2016-05-22T11:33:57.233Z,26.23
2016-05-22T11:34:57.298Z,25.95
2016-05-22T11:35:57.098Z,25.56
2016-05-22T11:36:57.257Z,26.33
2016-05-22T11:37:57.259Z,26.23
2016-05-22T11:38:57.121Z,25.46
2016-05-22T11:39:57.139Z,25.65
2016-05-22T11:40:57.314Z,25.27
2016-05-22T11:41:57.301Z,25.27
2016-05-22T11:42:57.539Z,25.47
2016-05-22T11:43:57.166Z,25.67
2016-05-22T11:44:57.325Z,25.18
2016-05-22T11:45:57.344Z,25.27
2016-05-22T11:46:57.347Z,25.29
2016-05-22T11:47:57.349Z,25.09
2016-05-22T11:48:57.366Z,24.9
2016-05-22T11:49:57.386Z,24.9
2016-05-22T11:50:57.388Z,24.71
2016-05-22T11:51:57.391Z,24.9
2016-05-22T11:52:57.284Z,24.32
2016-05-22T11:53:57.411Z,24.22
2016-05-22T11:54:57.430Z,24.41
2016-05-22T11:55:57.417Z,24.71
2016-05-22T11:56:57.435Z,24.41
2016-05-22T11:57:57.704Z,24.51
2016-05-22T11:58:57.674Z,24.9
2016-05-22T11:59:57.459Z,24.8
2016-05-22T12:00:57.462Z,25.19
2016-05-22T12:01:57.496Z,24.99
2016-05-22T12:02:57.483Z,24.9
2016-05-22T12:03:57.501Z,24.41
2016-05-22T12:04:57.551Z,24.23
2016-05-22T12:05:57.522Z,24.62
2016-05-22T12:06:57.525Z,24.41
2016-05-22T12:07:57.543Z,24.52
2016-05-22T12:08:57.545Z,24.13
2016-05-22T12:09:57.548Z,23.65
2016-05-22T12:10:57.582Z,23.75
2016-05-22T12:11:57.570Z,23.56
2016-05-22T12:12:57.792Z,23.56
2016-05-22T12:13:57.589Z,23.27
2016-05-22T12:14:57.625Z,23.56
2016-05-22T12:15:57.611Z,23.74
2016-05-22T12:16:57.614Z,23.95
2016-05-22T12:17:57.617Z,24.05
2016-05-22T12:18:57.635Z,24.15
2016-05-22T12:19:57.653Z,24.05
2016-05-22T12:20:57.671Z,24.52
2016-05-22T12:21:57.658Z,24.13
2016-05-22T12:22:57.521Z,24.24
2016-05-22T12:23:57.680Z,24.34
2016-05-22T12:24:57.574Z,24.23
2016-05-22T12:25:57.717Z,24.24
2016-05-22T12:26:57.547Z,24.24
2016-05-22T12:27:57.737Z,24.15
2016-05-22T12:28:57.724Z,23.96
2016-05-22T12:29:57.587Z,23.67
2016-05-22T12:30:57.760Z,23.67
2016-05-22T12:31:57.763Z,23.96
2016-05-22T12:32:57.766Z,24.26
2016-05-22T12:33:57.768Z,24.83
2016-05-22T12:34:57.771Z,24.45
2016-05-22T12:35:57.803Z,24.83
2016-05-22T12:36:57.827Z,25.02
2016-05-22T12:37:57.881Z,24.93
2016-05-22T12:38:57.903Z,25.3
2016-05-22T12:39:57.925Z,24.91
2016-05-22T12:40:57.971Z,24.91
2016-05-22T12:41:57.965Z,25.2
2016-05-22T12:42:57.975Z,24.83
2016-05-22T12:43:58.093Z,24.83
2016-05-22T12:44:58.025Z,24.54
2016-05-22T12:45:58.016Z,24.44
2016-05-22T12:46:58.037Z,24.44
2016-05-22T12:47:58.323Z,24.54
2016-05-22T12:48:58.064Z,24.63
2016-05-22T12:49:57.943Z,24.83
2016-05-22T12:50:58.073Z,24.83
2016-05-22T12:51:58.091Z,24.73
2016-05-22T12:52:58.111Z,24.73
2016-05-22T12:53:58.114Z,24.63
2016-05-22T12:54:58.118Z,24.63
2016-05-22T12:55:58.137Z,24.54